»·PEaware :: FDX1187 KSAN-KOAK

FDX1187 :: KSAN-KOAK

FLIGHT INFORMATION

Flight Status: Arrived
Operator:
Federal Express
More flights by this operator :: More flights under this callsign
Pilot: Anonymous 12254 (12254)
Aircraft: BOEING 767-300
(B763)
More flights by this aircraft type
Origin: KSAN San Diego Intl-Lindbergh
United States
Destination: KOAK Metro Oakland Intl
United States
More flights between these airports :: More routes between these airports
Route: +PADRZ2 OROSZ COREZ RGOOD EMZOH3
File this flight plan on PilotEdge
Remarks:
Altitude:
(Current/Filed)
32,000ft
Speed:
(Current/Filed)
340kts
Departed: 28-Apr-19 04:36 PM
Arrived: 28-Apr-19 05:38 PM
Distance/Time
Traveled:
387nm/1:02
Distance/Time
To Go:
Arrived

Flight Plot

Page will automatically refresh every two minutes.

Flight plan parsing failed; only flown route is shown


Map Options




Map Legend


Flown Route
Filed Route
Departure Airport
Arrival Airport
Navaid (VOR, NDB)
Fix

Horizontal Profiles

Position Reports

Time Latitude Longitude Heading Altitude Ground
Speed
28-Apr-19 16:04 32.736957 -117.186087 146 25ft 0kts
28-Apr-19 16:05 32.736957 -117.186087 146 25ft 0kts
28-Apr-19 16:06 32.736957 -117.186087 146 25ft 0kts
28-Apr-19 16:07 32.736957 -117.186087 146 25ft 0kts
28-Apr-19 16:08 32.736957 -117.186087 146 25ft 0kts
28-Apr-19 16:09 32.736957 -117.186087 146 25ft 0kts
28-Apr-19 16:10 32.736957 -117.186087 146 25ft 0kts
28-Apr-19 16:11 32.736957 -117.186087 146 25ft 0kts
28-Apr-19 16:12 32.736957 -117.186087 146 25ft 0kts
28-Apr-19 16:13 32.736957 -117.186087 146 25ft 0kts
28-Apr-19 16:14 32.736957 -117.186087 146 25ft 0kts
28-Apr-19 16:15 32.736957 -117.186087 146 25ft 0kts
28-Apr-19 16:16 32.736957 -117.186087 146 25ft 0kts
28-Apr-19 16:17 32.736957 -117.186087 146 25ft 0kts
28-Apr-19 16:18 32.736957 -117.186087 146 25ft 0kts
28-Apr-19 16:19 32.736957 -117.186087 146 25ft 0kts
28-Apr-19 16:20 32.736957 -117.186087 146 25ft 0kts
28-Apr-19 16:21 32.736925 -117.186062 146 25ft 2kts
28-Apr-19 16:22 32.736127 -117.185290 142 25ft 0kts
28-Apr-19 16:23 32.736127 -117.185290 142 25ft 0kts
28-Apr-19 16:24 32.736127 -117.185290 142 25ft 0kts
28-Apr-19 16:25 32.736127 -117.185290 142 25ft 0kts
28-Apr-19 16:26 32.735713 -117.184908 142 25ft 5kts
28-Apr-19 16:27 32.734444 -117.183940 170 25ft 0kts
28-Apr-19 16:28 32.734330 -117.183930 179 25ft 0kts
28-Apr-19 16:29 32.734330 -117.183930 179 25ft 0kts
28-Apr-19 16:30 32.734330 -117.183930 179 25ft 0kts
28-Apr-19 16:31 32.734330 -117.183930 179 25ft 0kts
28-Apr-19 16:32 32.734036 -117.183925 179 25ft 9kts
28-Apr-19 16:33 32.732279 -117.179545 104 27ft 18kts
28-Apr-19 16:34 32.730975 -117.175554 137 29ft 17kts
28-Apr-19 16:35 32.741755 -117.221240 294 1065ft 260kts
28-Apr-19 16:36 32.781201 -117.287116 305 3925ft 247kts
28-Apr-19 16:37 32.823232 -117.355038 305 6627ft 262kts
28-Apr-19 16:38 32.870006 -117.427567 303 7881ft 275kts
28-Apr-19 16:39 32.918429 -117.502826 303 8744ft 280kts
28-Apr-19 16:40 32.968294 -117.580521 303 10301ft 292kts
28-Apr-19 16:41 33.024883 -117.669015 303 11935ft 365kts
28-Apr-19 16:42 33.096259 -117.762491 315 13684ft 380kts
28-Apr-19 16:43 33.176726 -117.844461 315 15616ft 390kts
28-Apr-19 16:44 33.267063 -117.933335 316 17695ft 426kts
28-Apr-19 16:45 33.363145 -118.027233 316 19755ft 441kts
28-Apr-19 16:46 33.461429 -118.123588 316 21882ft 454kts
28-Apr-19 16:47 33.554889 -118.215437 316 24242ft 472kts
28-Apr-19 16:48 33.675938 -118.291174 331 27055ft 504kts
28-Apr-19 16:49 33.804880 -118.360232 332 30070ft 505kts
28-Apr-19 16:50 33.934949 -118.425865 332 31996ft 503kts
28-Apr-19 16:51 34.056366 -118.487363 331 31997ft 473kts
28-Apr-19 16:52 34.174850 -118.547661 331 31974ft 474kts
28-Apr-19 16:53 34.296793 -118.609886 331 31961ft 476kts
28-Apr-19 16:54 34.416838 -118.669482 330 31970ft 479kts
28-Apr-19 16:55 34.531476 -118.748157 323 31983ft 474kts
28-Apr-19 16:56 34.646582 -118.829702 323 32006ft 475kts
28-Apr-19 16:57 34.762179 -118.911864 324 32007ft 481kts
28-Apr-19 16:58 34.879013 -118.995171 324 31921ft 486kts
28-Apr-19 16:59 34.996402 -119.079127 325 31868ft 478kts
28-Apr-19 17:00 35.111241 -119.161562 325 31863ft 478kts
28-Apr-19 17:01 35.227375 -119.245202 325 31856ft 495kts
28-Apr-19 17:02 35.348295 -119.332580 325 31860ft 496kts
28-Apr-19 17:03 35.468863 -119.420021 325 31859ft 496kts
28-Apr-19 17:04 35.585660 -119.514112 316 31858ft 491kts
28-Apr-19 17:05 35.682192 -119.612054 315 31853ft 491kts
28-Apr-19 17:06 35.786309 -119.718635 315 31848ft 491kts
28-Apr-19 17:07 35.891015 -119.826248 315 31855ft 490kts
28-Apr-19 17:08 35.990108 -119.940619 311 31855ft 478kts
28-Apr-19 17:09 36.083304 -120.051373 310 30936ft 457kts
28-Apr-19 17:10 36.171255 -120.156170 310 29959ft 449kts
28-Apr-19 17:11 36.261082 -120.263520 311 28917ft 439kts
28-Apr-19 17:12 36.348777 -120.368674 311 27898ft 432kts
28-Apr-19 17:13 36.435221 -120.472696 311 27851ft 432kts
28-Apr-19 17:14 36.522220 -120.577714 311 27854ft 431kts
28-Apr-19 17:15 36.611383 -120.677738 313 27008ft 426kts
28-Apr-19 17:16 36.697557 -120.773272 313 25445ft 401kts
28-Apr-19 17:17 36.779995 -120.865005 314 22592ft 392kts
28-Apr-19 17:18 36.860391 -120.954106 315 19619ft 378kts
28-Apr-19 17:19 36.937193 -121.039479 316 17091ft 357kts
28-Apr-19 17:20 37.010068 -121.120681 317 14986ft 328kts
28-Apr-19 17:21 37.076610 -121.195044 317 15008ft 316kts
28-Apr-19 17:22 37.140256 -121.266587 316 15004ft 310kts
28-Apr-19 17:23 37.204145 -121.340835 316 13891ft 307kts
28-Apr-19 17:24 37.267222 -121.414267 316 12377ft 303kts
28-Apr-19 17:25 37.328685 -121.485982 316 10357ft 294kts
28-Apr-19 17:26 37.388403 -121.555473 317 9059ft 286kts
28-Apr-19 17:27 37.445764 -121.624642 305 7223ft 285kts
28-Apr-19 17:28 37.487200 -121.696009 303 5327ft 280kts
28-Apr-19 17:29 37.528759 -121.771403 293 4964ft 247kts
28-Apr-19 17:30 37.540656 -121.853645 278 4971ft 236kts
28-Apr-19 17:31 37.573028 -121.924251 305 4967ft 237kts
28-Apr-19 17:32 37.611320 -121.992698 304 4972ft 237kts
28-Apr-19 17:33 37.645587 -122.065128 291 3806ft 231kts
28-Apr-19 17:34 37.657267 -122.143560 279 2230ft 199kts
28-Apr-19 17:35 37.685097 -122.189417 309 569ft 162kts
28-Apr-19 17:36 37.709387 -122.225656 336 15ft 52kts
28-Apr-19 17:37 37.711020 -122.226176 5 15ft 3kts
28-Apr-19 17:38 37.711056 -122.224563 100 15ft 8kts
28-Apr-19 17:39 37.713393 -122.221621 47 15ft 16kts
28-Apr-19 17:40 37.717326 -122.216920 332 15ft 21kts
28-Apr-19 17:41 37.717475 -122.218566 229 15ft 0kts

Navigation Log

Ident Type
Flight plan parsing failed, navigation log unavailable